sensor_id;sensor_type;location;lat;lon;timestamp;P1;durP1;ratioP1;P2;durP2;ratioP2
13605;SDS011;6874;52.084;5.090;2023-03-23T00:00:28;188.80;;;181.50;;
13605;SDS011;6874;52.084;5.090;2023-03-23T00:02:53;187.60;;;180.40;;
13605;SDS011;6874;52.084;5.090;2023-03-23T00:05:19;185.90;;;178.73;;
13605;SDS011;6874;52.084;5.090;2023-03-23T00:07:45;183.63;;;176.53;;
13605;SDS011;6874;52.084;5.090;2023-03-23T00:10:11;193.70;;;186.20;;
13605;SDS011;6874;52.084;5.090;2023-03-23T00:12:36;191.70;;;184.30;;
13605;SDS011;6874;52.084;5.090;2023-03-23T00:15:03;196.53;;;189.00;;
13605;SDS011;6874;52.084;5.090;2023-03-23T00:17:30;186.87;;;179.77;;
13605;SDS011;6874;52.084;5.090;2023-03-23T00:19:58;185.73;;;178.60;;
13605;SDS011;6874;52.084;5.090;2023-03-23T00:22:25;186.63;;;179.50;;
13605;SDS011;6874;52.084;5.090;2023-03-23T00:24:52;180.67;;;173.70;;
13605;SDS011;6874;52.084;5.090;2023-03-23T00:27:17;176.90;;;170.13;;
13605;SDS011;6874;52.084;5.090;2023-03-23T00:29:43;183.80;;;176.80;;
13605;SDS011;6874;52.084;5.090;2023-03-23T00:32:10;183.17;;;176.13;;
13605;SDS011;6874;52.084;5.090;2023-03-23T00:34:41;187.73;;;180.63;;
13605;SDS011;6874;52.084;5.090;2023-03-23T00:37:09;182.37;;;175.30;;
13605;SDS011;6874;52.084;5.090;2023-03-23T00:39:35;180.50;;;173.60;;
13605;SDS011;6874;52.084;5.090;2023-03-23T00:42:02;172.93;;;166.40;;
13605;SDS011;6874;52.084;5.090;2023-03-23T00:44:29;188.17;;;180.97;;
13605;SDS011;6874;52.084;5.090;2023-03-23T00:46:56;183.40;;;176.47;;
13605;SDS011;6874;52.084;5.090;2023-03-23T00:49:23;180.07;;;173.20;;
13605;SDS011;6874;52.084;5.090;2023-03-23T00:51:50;175.73;;;169.07;;
13605;SDS011;6874;52.084;5.090;2023-03-23T00:54:17;174.83;;;168.07;;
13605;SDS011;6874;52.084;5.090;2023-03-23T00:56:42;178.93;;;172.00;;
13605;SDS011;6874;52.084;5.090;2023-03-23T00:59:08;169.73;;;163.20;;
13605;SDS011;6874;52.084;5.090;2023-03-23T01:01:34;170.90;;;164.37;;
13605;SDS011;6874;52.084;5.090;2023-03-23T01:04:01;167.43;;;161.00;;
13605;SDS011;6874;52.084;5.090;2023-03-23T01:06:33;167.30;;;161.00;;
13605;SDS011;6874;52.084;5.090;2023-03-23T01:09:00;168.67;;;162.27;;
13605;SDS011;6874;52.084;5.090;2023-03-23T01:11:26;168.57;;;162.13;;
13605;SDS011;6874;52.084;5.090;2023-03-23T01:13:51;168.43;;;162.13;;
13605;SDS011;6874;52.084;5.090;2023-03-23T01:16:17;165.07;;;158.77;;
13605;SDS011;6874;52.084;5.090;2023-03-23T01:18:43;167.93;;;161.63;;
13605;SDS011;6874;52.084;5.090;2023-03-23T01:21:11;158.87;;;152.87;;
13605;SDS011;6874;52.084;5.090;2023-03-23T01:23:41;167.07;;;160.77;;
13605;SDS011;6874;52.084;5.090;2023-03-23T01:26:07;170.23;;;163.73;;
13605;SDS011;6874;52.084;5.090;2023-03-23T01:28:35;156.90;;;151.00;;
13605;SDS011;6874;52.084;5.090;2023-03-23T01:31:02;162.47;;;156.23;;
13605;SDS011;6874;52.084;5.090;2023-03-23T01:33:33;165.17;;;158.97;;
13605;SDS011;6874;52.084;5.090;2023-03-23T01:36:03;162.10;;;156.03;;
13605;SDS011;6874;52.084;5.090;2023-03-23T01:38:34;161.80;;;155.70;;
13605;SDS011;6874;52.084;5.090;2023-03-23T01:41:00;159.10;;;153.13;;
13605;SDS011;6874;52.084;5.090;2023-03-23T01:43:27;157.67;;;151.80;;
13605;SDS011;6874;52.084;5.090;2023-03-23T01:45:53;156.17;;;150.33;;
13605;SDS011;6874;52.084;5.090;2023-03-23T01:48:20;154.33;;;148.63;;
13605;SDS011;6874;52.084;5.090;2023-03-23T01:50:57;150.93;;;145.30;;
13605;SDS011;6874;52.084;5.090;2023-03-23T01:53:30;160.37;;;154.27;;
13605;SDS011;6874;52.084;5.090;2023-03-23T01:56:02;160.93;;;154.97;;
13605;SDS011;6874;52.084;5.090;2023-03-23T01:58:29;156.13;;;150.40;;
13605;SDS011;6874;52.084;5.090;2023-03-23T02:00:58;154.13;;;148.33;;
13605;SDS011;6874;52.084;5.090;2023-03-23T02:03:27;163.17;;;157.10;;
13605;SDS011;6874;52.084;5.090;2023-03-23T02:05:55;152.60;;;146.90;;
13605;SDS011;6874;52.084;5.090;2023-03-23T02:08:23;156.20;;;150.37;;
13605;SDS011;6874;52.084;5.090;2023-03-23T02:10:53;151.57;;;145.93;;
13605;SDS011;6874;52.084;5.090;2023-03-23T02:13:18;156.67;;;150.87;;
13605;SDS011;6874;52.084;5.090;2023-03-23T02:15:56;156.40;;;150.57;;
13605;SDS011;6874;52.084;5.090;2023-03-23T02:21:43;171.77;;;165.27;;
13605;SDS011;6874;52.084;5.090;2023-03-23T02:27:17;179.37;;;172.60;;
13605;SDS011;6874;52.084;5.090;2023-03-23T02:30:15;193.17;;;185.87;;
13605;SDS011;6874;52.084;5.090;2023-03-23T02:38:31;203.57;;;195.93;;
13605;SDS011;6874;52.084;5.090;2023-03-23T02:41:03;202.80;;;195.00;;
13605;SDS011;6874;52.084;5.090;2023-03-23T02:43:31;195.63;;;188.23;;
13605;SDS011;6874;52.084;5.090;2023-03-23T02:46:04;199.83;;;192.17;;
13605;SDS011;6874;52.084;5.090;2023-03-23T02:48:32;205.93;;;197.93;;
13605;SDS011;6874;52.084;5.090;2023-03-23T02:50:58;195.47;;;188.00;;
13605;SDS011;6874;52.084;5.090;2023-03-23T02:53:26;191.77;;;184.40;;
13605;SDS011;6874;52.084;5.090;2023-03-23T02:55:54;182.77;;;175.73;;
13605;SDS011;6874;52.084;5.090;2023-03-23T02:58:22;199.53;;;191.80;;
13605;SDS011;6874;52.084;5.090;2023-03-23T03:00:50;189.03;;;181.83;;
13605;SDS011;6874;52.084;5.090;2023-03-23T03:03:18;191.40;;;183.90;;
13605;SDS011;6874;52.084;5.090;2023-03-23T03:06:00;191.20;;;183.87;;
13605;SDS011;6874;52.084;5.090;2023-03-23T03:11:17;198.80;;;191.20;;
13605;SDS011;6874;52.084;5.090;2023-03-23T03:13:52;203.30;;;195.53;;
13605;SDS011;6874;52.084;5.090;2023-03-23T03:21:37;195.10;;;187.60;;
13605;SDS011;6874;52.084;5.090;2023-03-23T03:24:07;193.40;;;185.97;;
13605;SDS011;6874;52.084;5.090;2023-03-23T03:26:36;192.33;;;184.93;;
13605;SDS011;6874;52.084;5.090;2023-03-23T03:29:06;189.23;;;181.90;;
13605;SDS011;6874;52.084;5.090;2023-03-23T03:31:34;190.53;;;183.20;;
13605;SDS011;6874;52.084;5.090;2023-03-23T03:34:03;190.10;;;182.73;;
13605;SDS011;6874;52.084;5.090;2023-03-23T03:36:30;193.90;;;186.43;;
13605;SDS011;6874;52.084;5.090;2023-03-23T03:39:05;189.67;;;182.37;;
13605;SDS011;6874;52.084;5.090;2023-03-23T03:41:36;178.87;;;171.87;;
13605;SDS011;6874;52.084;5.090;2023-03-23T03:44:03;185.60;;;178.47;;
13605;SDS011;6874;52.084;5.090;2023-03-23T03:46:30;183.70;;;176.57;;
13605;SDS011;6874;52.084;5.090;2023-03-23T03:48:56;187.13;;;179.90;;
13605;SDS011;6874;52.084;5.090;2023-03-23T03:51:25;191.23;;;183.87;;
13605;SDS011;6874;52.084;5.090;2023-03-23T03:53:52;183.33;;;176.37;;
13605;SDS011;6874;52.084;5.090;2023-03-23T03:56:18;188.30;;;180.90;;
13605;SDS011;6874;52.084;5.090;2023-03-23T03:58:44;181.10;;;174.10;;
13605;SDS011;6874;52.084;5.090;2023-03-23T04:01:10;185.47;;;178.33;;
13605;SDS011;6874;52.084;5.090;2023-03-23T04:03:36;177.80;;;171.00;;
13605;SDS011;6874;52.084;5.090;2023-03-23T04:06:03;177.47;;;170.77;;
13605;SDS011;6874;52.084;5.090;2023-03-23T04:08:30;185.10;;;177.97;;
13605;SDS011;6874;52.084;5.090;2023-03-23T04:10:56;183.57;;;176.47;;
13605;SDS011;6874;52.084;5.090;2023-03-23T04:13:22;182.40;;;175.23;;
13605;SDS011;6874;52.084;5.090;2023-03-23T04:15:48;186.13;;;179.03;;
13605;SDS011;6874;52.084;5.090;2023-03-23T04:18:14;176.63;;;169.87;;
13605;SDS011;6874;52.084;5.090;2023-03-23T04:20:43;172.63;;;166.03;;
13605;SDS011;6874;52.084;5.090;2023-03-23T04:23:12;175.37;;;168.70;;
13605;SDS011;6874;52.084;5.090;2023-03-23T04:25:38;165.07;;;158.90;;
13605;SDS011;6874;52.084;5.090;2023-03-23T04:28:05;173.70;;;167.17;;
13605;SDS011;6874;52.084;5.090;2023-03-23T04:30:31;174.93;;;168.40;;
13605;SDS011;6874;52.084;5.090;2023-03-23T04:32:57;169.90;;;163.60;;
13605;SDS011;6874;52.084;5.090;2023-03-23T04:35:25;167.20;;;160.90;;
13605;SDS011;6874;52.084;5.090;2023-03-23T04:37:51;171.00;;;164.67;;
13605;SDS011;6874;52.084;5.090;2023-03-23T04:40:18;171.20;;;164.90;;
13605;SDS011;6874;52.084;5.090;2023-03-23T04:42:44;163.90;;;157.80;;
13605;SDS011;6874;52.084;5.090;2023-03-23T04:45:10;165.47;;;159.37;;
13605;SDS011;6874;52.084;5.090;2023-03-23T04:47:46;170.83;;;164.53;;
13605;SDS011;6874;52.084;5.090;2023-03-23T04:50:18;163.70;;;157.63;;
13605;SDS011;6874;52.084;5.090;2023-03-23T04:52:48;167.83;;;161.67;;
13605;SDS011;6874;52.084;5.090;2023-03-23T04:55:16;164.90;;;158.80;;
13605;SDS011;6874;52.084;5.090;2023-03-23T04:57:43;166.33;;;160.27;;
13605;SDS011;6874;52.084;5.090;2023-03-23T05:00:09;166.80;;;160.63;;
13605;SDS011;6874;52.084;5.090;2023-03-23T05:02:41;161.93;;;156.13;;
13605;SDS011;6874;52.084;5.090;2023-03-23T05:05:09;163.33;;;157.30;;
13605;SDS011;6874;52.084;5.090;2023-03-23T05:07:37;168.13;;;161.97;;
13605;SDS011;6874;52.084;5.090;2023-03-23T05:10:04;160.63;;;154.67;;
13605;SDS011;6874;52.084;5.090;2023-03-23T05:12:31;167.53;;;161.43;;
13605;SDS011;6874;52.084;5.090;2023-03-23T05:14:57;159.70;;;153.83;;
13605;SDS011;6874;52.084;5.090;2023-03-23T05:17:22;162.53;;;156.67;;
13605;SDS011;6874;52.084;5.090;2023-03-23T05:19:52;164.53;;;158.57;;
13605;SDS011;6874;52.084;5.090;2023-03-23T05:22:18;171.50;;;165.17;;
13605;SDS011;6874;52.084;5.090;2023-03-23T05:24:46;168.63;;;162.43;;
13605;SDS011;6874;52.084;5.090;2023-03-23T05:27:12;159.47;;;153.67;;
13605;SDS011;6874;52.084;5.090;2023-03-23T05:29:39;163.23;;;157.23;;
13605;SDS011;6874;52.084;5.090;2023-03-23T05:32:06;160.87;;;155.10;;
13605;SDS011;6874;52.084;5.090;2023-03-23T05:34:32;161.83;;;156.07;;
13605;SDS011;6874;52.084;5.090;2023-03-23T05:36:59;161.17;;;155.37;;
13605;SDS011;6874;52.084;5.090;2023-03-23T05:39:27;167.10;;;161.17;;
13605;SDS011;6874;52.084;5.090;2023-03-23T05:41:53;157.00;;;151.30;;
13605;SDS011;6874;52.084;5.090;2023-03-23T05:44:19;156.77;;;151.17;;
13605;SDS011;6874;52.084;5.090;2023-03-23T05:46:45;143.07;;;137.90;;
13605;SDS011;6874;52.084;5.090;2023-03-23T05:49:11;150.07;;;144.63;;
13605;SDS011;6874;52.084;5.090;2023-03-23T05:51:38;155.87;;;150.33;;
13605;SDS011;6874;52.084;5.090;2023-03-23T05:54:04;153.87;;;148.40;;
13605;SDS011;6874;52.084;5.090;2023-03-23T05:56:30;148.77;;;143.53;;
13605;SDS011;6874;52.084;5.090;2023-03-23T05:58:56;147.07;;;141.93;;
13605;SDS011;6874;52.084;5.090;2023-03-23T06:01:22;167.47;;;161.57;;
13605;SDS011;6874;52.084;5.090;2023-03-23T06:03:49;139.43;;;134.47;;
13605;SDS011;6874;52.084;5.090;2023-03-23T06:06:18;133.33;;;128.60;;
13605;SDS011;6874;52.084;5.090;2023-03-23T06:08:45;131.70;;;127.07;;
13605;SDS011;6874;52.084;5.090;2023-03-23T06:11:10;124.57;;;120.17;;
13605;SDS011;6874;52.084;5.090;2023-03-23T06:13:36;131.90;;;127.23;;
13605;SDS011;6874;52.084;5.090;2023-03-23T06:16:02;135.10;;;130.40;;
13605;SDS011;6874;52.084;5.090;2023-03-23T06:18:29;134.67;;;129.93;;
13605;SDS011;6874;52.084;5.090;2023-03-23T06:20:58;139.03;;;134.07;;
13605;SDS011;6874;52.084;5.090;2023-03-23T06:23:25;134.37;;;129.60;;
13605;SDS011;6874;52.084;5.090;2023-03-23T06:25:55;136.83;;;132.03;;
13605;SDS011;6874;52.084;5.090;2023-03-23T06:28:24;135.93;;;131.13;;
13605;SDS011;6874;52.084;5.090;2023-03-23T06:30:50;124.03;;;119.73;;
13605;SDS011;6874;52.084;5.090;2023-03-23T06:33:17;122.40;;;118.13;;
13605;SDS011;6874;52.084;5.090;2023-03-23T06:35:43;124.10;;;119.73;;
13605;SDS011;6874;52.084;5.090;2023-03-23T06:38:09;117.67;;;113.57;;
13605;SDS011;6874;52.084;5.090;2023-03-23T06:40:35;123.57;;;119.30;;
13605;SDS011;6874;52.084;5.090;2023-03-23T06:43:06;115.80;;;111.80;;
13605;SDS011;6874;52.084;5.090;2023-03-23T06:45:32;118.33;;;114.23;;
13605;SDS011;6874;52.084;5.090;2023-03-23T06:47:57;122.27;;;118.07;;
13605;SDS011;6874;52.084;5.090;2023-03-23T06:50:23;113.00;;;109.10;;
13605;SDS011;6874;52.084;5.090;2023-03-23T06:52:49;116.23;;;112.23;;
13605;SDS011;6874;52.084;5.090;2023-03-23T06:55:16;119.83;;;115.77;;
13605;SDS011;6874;52.084;5.090;2023-03-23T06:57:43;116.50;;;112.57;;
13605;SDS011;6874;52.084;5.090;2023-03-23T07:00:10;115.37;;;111.40;;
13605;SDS011;6874;52.084;5.090;2023-03-23T07:02:41;114.80;;;110.83;;
13605;SDS011;6874;52.084;5.090;2023-03-23T07:05:09;120.30;;;116.13;;
13605;SDS011;6874;52.084;5.090;2023-03-23T07:07:36;124.43;;;120.07;;
13605;SDS011;6874;52.084;5.090;2023-03-23T07:10:04;125.17;;;120.70;;
13605;SDS011;6874;52.084;5.090;2023-03-23T07:12:32;126.37;;;121.87;;
13605;SDS011;6874;52.084;5.090;2023-03-23T07:14:58;128.53;;;123.93;;
13605;SDS011;6874;52.084;5.090;2023-03-23T07:17:23;131.33;;;126.67;;
13605;SDS011;6874;52.084;5.090;2023-03-23T07:19:49;127.10;;;122.53;;
13605;SDS011;6874;52.084;5.090;2023-03-23T07:22:15;133.67;;;128.83;;
13605;SDS011;6874;52.084;5.090;2023-03-23T07:24:41;137.37;;;132.33;;
13605;SDS011;6874;52.084;5.090;2023-03-23T07:27:06;157.40;;;151.53;;
13605;SDS011;6874;52.084;5.090;2023-03-23T07:29:32;174.57;;;167.97;;
13605;SDS011;6874;52.084;5.090;2023-03-23T07:32:00;176.90;;;170.10;;
13605;SDS011;6874;52.084;5.090;2023-03-23T07:34:26;204.77;;;196.90;;
13605;SDS011;6874;52.084;5.090;2023-03-23T07:36:52;213.37;;;205.07;;
13605;SDS011;6874;52.084;5.090;2023-03-23T07:39:21;224.57;;;215.90;;
13605;SDS011;6874;52.084;5.090;2023-03-23T07:41:52;230.27;;;221.40;;
13605;SDS011;6874;52.084;5.090;2023-03-23T07:44:20;234.37;;;225.33;;
13605;SDS011;6874;52.084;5.090;2023-03-23T07:46:46;242.00;;;232.63;;
13605;SDS011;6874;52.084;5.090;2023-03-23T07:49:12;234.73;;;225.57;;
13605;SDS011;6874;52.084;5.090;2023-03-23T07:51:37;230.30;;;221.40;;
13605;SDS011;6874;52.084;5.090;2023-03-23T07:54:03;224.30;;;215.50;;
13605;SDS011;6874;52.084;5.090;2023-03-23T07:56:32;234.53;;;225.33;;
13605;SDS011;6874;52.084;5.090;2023-03-23T07:58:58;236.73;;;227.47;;
13605;SDS011;6874;52.084;5.090;2023-03-23T08:01:24;236.53;;;227.20;;
13605;SDS011;6874;52.084;5.090;2023-03-23T08:03:50;256.43;;;246.40;;
13605;SDS011;6874;52.084;5.090;2023-03-23T08:06:16;241.63;;;232.20;;
13605;SDS011;6874;52.084;5.090;2023-03-23T08:08:42;237.67;;;228.20;;
13605;SDS011;6874;52.084;5.090;2023-03-23T08:11:08;243.70;;;234.07;;
13605;SDS011;6874;52.084;5.090;2023-03-23T08:13:33;238.90;;;229.40;;
13605;SDS011;6874;52.084;5.090;2023-03-23T08:16:00;241.87;;;232.20;;
13605;SDS011;6874;52.084;5.090;2023-03-23T08:18:29;247.57;;;237.70;;
13605;SDS011;6874;52.084;5.090;2023-03-23T08:20:56;239.90;;;230.17;;
13605;SDS011;6874;52.084;5.090;2023-03-23T08:23:22;236.07;;;226.47;;
13605;SDS011;6874;52.084;5.090;2023-03-23T08:25:48;233.13;;;223.77;;
13605;SDS011;6874;52.084;5.090;2023-03-23T08:28:14;224.70;;;215.63;;
13605;SDS011;6874;52.084;5.090;2023-03-23T08:30:40;216.23;;;207.53;;
13605;SDS011;6874;52.084;5.090;2023-03-23T08:33:06;220.77;;;211.77;;
13605;SDS011;6874;52.084;5.090;2023-03-23T08:35:33;200.37;;;192.07;;
13605;SDS011;6874;52.084;5.090;2023-03-23T08:37:59;196.30;;;188.27;;
13605;SDS011;6874;52.084;5.090;2023-03-23T08:40:25;191.60;;;183.77;;
13605;SDS011;6874;52.084;5.090;2023-03-23T08:42:52;184.30;;;176.90;;
13605;SDS011;6874;52.084;5.090;2023-03-23T08:45:22;183.93;;;176.47;;
13605;SDS011;6874;52.084;5.090;2023-03-23T08:47:49;185.73;;;178.40;;
13605;SDS011;6874;52.084;5.090;2023-03-23T08:50:20;181.60;;;174.40;;
13605;SDS011;6874;52.084;5.090;2023-03-23T08:52:48;186.30;;;178.83;;
13605;SDS011;6874;52.084;5.090;2023-03-23T08:55:15;194.07;;;186.23;;
13605;SDS011;6874;52.084;5.090;2023-03-23T08:57:42;191.70;;;184.17;;
13605;SDS011;6874;52.084;5.090;2023-03-23T09:00:10;195.67;;;187.93;;
13605;SDS011;6874;52.084;5.090;2023-03-23T09:02:43;186.93;;;179.47;;
13605;SDS011;6874;52.084;5.090;2023-03-23T09:05:11;193.57;;;185.97;;
13605;SDS011;6874;52.084;5.090;2023-03-23T09:07:39;191.90;;;184.30;;
13605;SDS011;6874;52.084;5.090;2023-03-23T09:10:06;197.87;;;190.13;;
13605;SDS011;6874;52.084;5.090;2023-03-23T09:12:33;189.83;;;182.20;;
13605;SDS011;6874;52.084;5.090;2023-03-23T09:15:00;200.73;;;192.70;;
13605;SDS011;6874;52.084;5.090;2023-03-23T09:17:30;197.00;;;189.07;;
13605;SDS011;6874;52.084;5.090;2023-03-23T09:19:56;190.20;;;182.60;;
13605;SDS011;6874;52.084;5.090;2023-03-23T09:22:21;204.40;;;196.13;;
13605;SDS011;6874;52.084;5.090;2023-03-23T09:24:49;209.57;;;201.03;;
13605;SDS011;6874;52.084;5.090;2023-03-23T09:27:16;203.70;;;195.40;;
13605;SDS011;6874;52.084;5.090;2023-03-23T09:29:42;218.17;;;209.40;;
13605;SDS011;6874;52.084;5.090;2023-03-23T09:32:09;216.13;;;207.40;;
13605;SDS011;6874;52.084;5.090;2023-03-23T09:34:35;220.50;;;211.70;;
13605;SDS011;6874;52.084;5.090;2023-03-23T09:37:03;210.60;;;201.93;;
13605;SDS011;6874;52.084;5.090;2023-03-23T09:39:29;220.43;;;211.47;;
13605;SDS011;6874;52.084;5.090;2023-03-23T09:41:59;219.40;;;210.50;;
13605;SDS011;6874;52.084;5.090;2023-03-23T09:44:39;218.70;;;209.80;;
13605;SDS011;6874;52.084;5.090;2023-03-23T09:47:36;211.50;;;202.90;;
13605;SDS011;6874;52.084;5.090;2023-03-23T09:50:14;202.80;;;194.63;;
13605;SDS011;6874;52.084;5.090;2023-03-23T09:52:52;205.37;;;197.03;;
13605;SDS011;6874;52.084;5.090;2023-03-23T09:55:21;209.53;;;201.00;;
13605;SDS011;6874;52.084;5.090;2023-03-23T09:57:58;214.60;;;206.03;;
13605;SDS011;6874;52.084;5.090;2023-03-23T10:03:43;174.10;;;167.43;;
13605;SDS011;6874;52.084;5.090;2023-03-23T10:06:11;188.00;;;180.97;;
13605;SDS011;6874;52.084;5.090;2023-03-23T10:08:42;169.83;;;163.57;;
13605;SDS011;6874;52.084;5.090;2023-03-23T10:14:12;160.27;;;154.50;;
13605;SDS011;6874;52.084;5.090;2023-03-23T10:17:07;133.00;;;128.40;;
13605;SDS011;6874;52.084;5.090;2023-03-23T10:25:37;119.10;;;115.00;;
13605;SDS011;6874;52.084;5.090;2023-03-23T10:28:10;124.93;;;120.33;;
13605;SDS011;6874;52.084;5.090;2023-03-23T10:30:41;155.93;;;150.00;;
13605;SDS011;6874;52.084;5.090;2023-03-23T10:35:45;193.43;;;185.83;;
13605;SDS011;6874;52.084;5.090;2023-03-23T10:38:21;208.03;;;199.77;;
13605;SDS011;6874;52.084;5.090;2023-03-23T10:40:54;215.77;;;207.10;;
13605;SDS011;6874;52.084;5.090;2023-03-23T10:43:27;222.37;;;213.50;;
13605;SDS011;6874;52.084;5.090;2023-03-23T10:46:00;232.37;;;223.10;;
13605;SDS011;6874;52.084;5.090;2023-03-23T10:48:29;226.87;;;217.73;;
13605;SDS011;6874;52.084;5.090;2023-03-23T10:50:59;234.33;;;224.87;;
13605;SDS011;6874;52.084;5.090;2023-03-23T10:55:57;253.93;;;243.40;;
13605;SDS011;6874;52.084;5.090;2023-03-23T10:58:27;274.00;;;262.40;;
13605;SDS011;6874;52.084;5.090;2023-03-23T11:00:56;264.50;;;253.47;;
13605;SDS011;6874;52.084;5.090;2023-03-23T11:06:05;210.47;;;202.30;;
13605;SDS011;6874;52.084;5.090;2023-03-23T11:08:52;148.97;;;143.73;;
13605;SDS011;6874;52.084;5.090;2023-03-23T11:11:31;91.43;;;88.33;;
13605;SDS011;6874;52.084;5.090;2023-03-23T11:14:03;132.40;;;127.57;;
13605;SDS011;6874;52.084;5.090;2023-03-23T11:16:41;147.43;;;141.90;;
13605;SDS011;6874;52.084;5.090;2023-03-23T11:19:20;150.80;;;145.23;;
13605;SDS011;6874;52.084;5.090;2023-03-23T11:21:49;152.57;;;147.07;;
13605;SDS011;6874;52.084;5.090;2023-03-23T11:24:17;142.70;;;137.60;;
13605;SDS011;6874;52.084;5.090;2023-03-23T11:26:43;134.20;;;129.50;;
13605;SDS011;6874;52.084;5.090;2023-03-23T11:29:12;143.43;;;138.47;;
13605;SDS011;6874;52.084;5.090;2023-03-23T11:34:34;224.57;;;216.53;;
13605;SDS011;6874;52.084;5.090;2023-03-23T11:37:09;258.13;;;248.77;;
13605;SDS011;6874;52.084;5.090;2023-03-23T11:39:57;257.90;;;248.57;;
13605;SDS011;6874;52.084;5.090;2023-03-23T11:42:34;209.40;;;201.90;;
13605;SDS011;6874;52.084;5.090;2023-03-23T11:45:19;119.03;;;114.87;;
13605;SDS011;6874;52.084;5.090;2023-03-23T11:58:50;323.47;;;310.93;;
13605;SDS011;6874;52.084;5.090;2023-03-23T12:01:24;274.83;;;264.37;;
13605;SDS011;6874;52.084;5.090;2023-03-23T12:15:25;366.53;;;352.80;;
13605;SDS011;6874;52.084;5.090;2023-03-23T12:18:02;404.47;;;388.83;;
13605;SDS011;6874;52.084;5.090;2023-03-23T12:28:45;329.53;;;316.90;;
13605;SDS011;6874;52.084;5.090;2023-03-23T12:33:46;315.27;;;303.33;;
13605;SDS011;6874;52.084;5.090;2023-03-23T12:36:37;302.77;;;291.33;;
13605;SDS011;6874;52.084;5.090;2023-03-23T12:39:31;273.80;;;263.80;;
13605;SDS011;6874;52.084;5.090;2023-03-23T12:42:09;264.90;;;255.27;;
13605;SDS011;6874;52.084;5.090;2023-03-23T12:50:04;287.50;;;276.93;;
13605;SDS011;6874;52.084;5.090;2023-03-23T12:52:53;276.10;;;265.90;;
13605;SDS011;6874;52.084;5.090;2023-03-23T12:55:32;284.83;;;274.40;;
13605;SDS011;6874;52.084;5.090;2023-03-23T12:58:08;303.87;;;292.70;;
13605;SDS011;6874;52.084;5.090;2023-03-23T13:06:12;346.37;;;333.33;;
13605;SDS011;6874;52.084;5.090;2023-03-23T13:11:53;317.80;;;306.43;;
13605;SDS011;6874;52.084;5.090;2023-03-23T13:22:27;340.13;;;327.17;;
13605;SDS011;6874;52.084;5.090;2023-03-23T13:25:00;329.57;;;316.87;;
13605;SDS011;6874;52.084;5.090;2023-03-23T13:27:28;323.47;;;311.10;;
13605;SDS011;6874;52.084;5.090;2023-03-23T13:29:57;336.17;;;323.37;;
13605;SDS011;6874;52.084;5.090;2023-03-23T13:35:03;322.30;;;310.20;;
13605;SDS011;6874;52.084;5.090;2023-03-23T13:37:40;330.47;;;318.10;;
13605;SDS011;6874;52.084;5.090;2023-03-23T13:42:46;357.53;;;344.13;;
13605;SDS011;6874;52.084;5.090;2023-03-23T13:47:48;376.50;;;362.13;;
13605;SDS011;6874;52.084;5.090;2023-03-23T14:05:42;424.77;;;407.10;;
13605;SDS011;6874;52.084;5.090;2023-03-23T14:10:35;342.97;;;329.33;;
13605;SDS011;6874;52.084;5.090;2023-03-23T14:13:18;319.10;;;306.60;;
13605;SDS011;6874;52.084;5.090;2023-03-23T14:15:57;307.90;;;296.03;;
13605;SDS011;6874;52.084;5.090;2023-03-23T14:18:26;311.83;;;299.80;;
13605;SDS011;6874;52.084;5.090;2023-03-23T14:21:22;328.33;;;315.53;;
13605;SDS011;6874;52.084;5.090;2023-03-23T14:24:02;357.27;;;343.13;;
13605;SDS011;6874;52.084;5.090;2023-03-23T14:26:29;381.87;;;366.37;;
13605;SDS011;6874;52.084;5.090;2023-03-23T14:28:58;420.47;;;402.97;;
13605;SDS011;6874;52.084;5.090;2023-03-23T14:31:25;446.57;;;427.87;;
13605;SDS011;6874;52.084;5.090;2023-03-23T14:33:53;477.87;;;457.07;;
13605;SDS011;6874;52.084;5.090;2023-03-23T14:36:27;492.37;;;470.70;;
13605;SDS011;6874;52.084;5.090;2023-03-23T14:38:55;489.73;;;468.47;;
13605;SDS011;6874;52.084;5.090;2023-03-23T14:41:30;483.47;;;462.67;;
13605;SDS011;6874;52.084;5.090;2023-03-23T14:43:56;492.57;;;471.70;;
13605;SDS011;6874;52.084;5.090;2023-03-23T14:46:25;465.60;;;446.57;;
13605;SDS011;6874;52.084;5.090;2023-03-23T14:48:50;447.03;;;428.57;;
13605;SDS011;6874;52.084;5.090;2023-03-23T14:51:17;421.73;;;404.43;;
13605;SDS011;6874;52.084;5.090;2023-03-23T14:53:45;404.47;;;387.87;;
13605;SDS011;6874;52.084;5.090;2023-03-23T14:56:13;403.17;;;386.43;;
13605;SDS011;6874;52.084;5.090;2023-03-23T14:59:02;389.10;;;373.17;;
13605;SDS011;6874;52.084;5.090;2023-03-23T15:01:31;420.93;;;403.33;;
13605;SDS011;6874;52.084;5.090;2023-03-23T15:06:31;459.23;;;439.20;;
13605;SDS011;6874;52.084;5.090;2023-03-23T15:09:02;450.33;;;430.63;;
13605;SDS011;6874;52.084;5.090;2023-03-23T15:11:31;470.33;;;449.67;;
13605;SDS011;6874;52.084;5.090;2023-03-23T15:14:10;468.70;;;448.17;;
13605;SDS011;6874;52.084;5.090;2023-03-23T15:16:46;465.30;;;445.13;;
13605;SDS011;6874;52.084;5.090;2023-03-23T15:19:17;472.27;;;451.47;;
13605;SDS011;6874;52.084;5.090;2023-03-23T15:21:53;445.90;;;426.67;;
13605;SDS011;6874;52.084;5.090;2023-03-23T15:27:12;443.03;;;423.67;;
13605;SDS011;6874;52.084;5.090;2023-03-23T15:29:47;442.03;;;423.13;;
13605;SDS011;6874;52.084;5.090;2023-03-23T15:32:27;422.70;;;404.70;;
13605;SDS011;6874;52.084;5.090;2023-03-23T15:35:03;407.13;;;390.23;;
13605;SDS011;6874;52.084;5.090;2023-03-23T15:37:37;391.33;;;375.37;;
13605;SDS011;6874;52.084;5.090;2023-03-23T15:40:17;399.30;;;383.27;;
13605;SDS011;6874;52.084;5.090;2023-03-23T15:42:46;391.20;;;375.73;;
13605;SDS011;6874;52.084;5.090;2023-03-23T15:52:49;373.90;;;359.67;;
13605;SDS011;6874;52.084;5.090;2023-03-23T15:55:26;383.33;;;368.63;;
13605;SDS011;6874;52.084;5.090;2023-03-23T15:57:54;382.73;;;368.30;;
13605;SDS011;6874;52.084;5.090;2023-03-23T16:00:22;392.40;;;377.60;;
13605;SDS011;6874;52.084;5.090;2023-03-23T16:02:52;405.07;;;389.40;;
13605;SDS011;6874;52.084;5.090;2023-03-23T16:05:22;406.63;;;391.07;;
13605;SDS011;6874;52.084;5.090;2023-03-23T16:07:48;408.33;;;392.40;;
13605;SDS011;6874;52.084;5.090;2023-03-23T16:10:18;417.60;;;401.33;;
13605;SDS011;6874;52.084;5.090;2023-03-23T16:12:45;391.30;;;376.03;;
13605;SDS011;6874;52.084;5.090;2023-03-23T16:15:12;412.13;;;396.10;;
13605;SDS011;6874;52.084;5.090;2023-03-23T16:17:38;427.57;;;411.00;;
13605;SDS011;6874;52.084;5.090;2023-03-23T16:20:09;431.30;;;414.43;;
13605;SDS011;6874;52.084;5.090;2023-03-23T16:22:41;414.13;;;397.77;;
13605;SDS011;6874;52.084;5.090;2023-03-23T16:25:07;431.57;;;414.03;;
13605;SDS011;6874;52.084;5.090;2023-03-23T16:27:33;477.87;;;458.07;;
13605;SDS011;6874;52.084;5.090;2023-03-23T16:29:59;474.03;;;454.27;;
13605;SDS011;6874;52.084;5.090;2023-03-23T16:32:27;463.03;;;443.53;;
13605;SDS011;6874;52.084;5.090;2023-03-23T16:34:53;467.33;;;447.73;;
13605;SDS011;6874;52.084;5.090;2023-03-23T16:37:19;475.97;;;455.60;;